sensor_id;sensor_type;location;lat;lon;timestamp;pressure;altitude;pressure_sealevel;temperature;humidity
52032;BME280;38044;45.148;39.604;2023-05-10T00:01:33;101227.81;;;11.23;94.59
52032;BME280;38044;45.148;39.604;2023-05-10T00:03:59;101232.16;;;11.19;94.39
52032;BME280;38044;45.148;39.604;2023-05-10T00:06:25;101265.88;;;11.45;94.13
52032;BME280;38044;45.148;39.604;2023-05-10T00:08:51;101205.28;;;11.09;93.82
52032;BME280;38044;45.148;39.604;2023-05-10T00:11:17;101242.84;;;11.29;93.80
52032;BME280;38044;45.148;39.604;2023-05-10T00:13:42;101250.91;;;11.29;93.15
52032;BME280;38044;45.148;39.604;2023-05-10T00:16:08;101286.34;;;11.46;93.21
52032;BME280;38044;45.148;39.604;2023-05-10T00:18:34;101290.09;;;11.50;93.00
52032;BME280;38044;45.148;39.604;2023-05-10T00:21:00;101300.31;;;11.48;93.21
52032;BME280;38044;45.148;39.604;2023-05-10T00:23:26;101289.59;;;11.43;92.86
52032;BME280;38044;45.148;39.604;2023-05-10T00:25:51;101297.41;;;11.45;92.62
52032;BME280;38044;45.148;39.604;2023-05-10T00:28:17;101295.03;;;11.33;92.56
52032;BME280;38044;45.148;39.604;2023-05-10T00:30:43;101158.78;;;10.53;92.60
52032;BME280;38044;45.148;39.604;2023-05-10T00:33:09;101248.34;;;11.09;92.80
52032;BME280;38044;45.148;39.604;2023-05-10T00:35:35;101289.91;;;11.32;92.71
52032;BME280;38044;45.148;39.604;2023-05-10T00:38:01;101175.41;;;10.55;92.59
52032;BME280;38044;45.148;39.604;2023-05-10T00:40:27;101182.38;;;10.67;92.70
52032;BME280;38044;45.148;39.604;2023-05-10T00:42:54;101305.19;;;11.41;92.62
52032;BME280;38044;45.148;39.604;2023-05-10T00:45:20;101284.53;;;11.32;92.86
52032;BME280;38044;45.148;39.604;2023-05-10T00:47:45;101307.88;;;11.41;93.31
52032;BME280;38044;45.148;39.604;2023-05-10T00:50:12;101264.97;;;11.16;93.03
52032;BME280;38044;45.148;39.604;2023-05-10T00:52:37;101300.44;;;11.33;92.67
52032;BME280;38044;45.148;39.604;2023-05-10T00:55:04;101267.16;;;11.14;92.68
52032;BME280;38044;45.148;39.604;2023-05-10T00:57:30;101296.13;;;11.27;92.40
52032;BME280;38044;45.148;39.604;2023-05-10T00:59:57;101300.16;;;11.24;92.62
52032;BME280;38044;45.148;39.604;2023-05-10T01:02:24;101198.00;;;10.54;92.41
52032;BME280;38044;45.148;39.604;2023-05-10T01:04:49;101307.50;;;11.19;92.90
52032;BME280;38044;45.148;39.604;2023-05-10T01:07:15;101274.69;;;11.12;92.72
52032;BME280;38044;45.148;39.604;2023-05-10T01:09:42;101294.22;;;11.33;92.82
52032;BME280;38044;45.148;39.604;2023-05-10T01:12:08;101217.81;;;10.79;92.82
52032;BME280;38044;45.148;39.604;2023-05-10T01:14:34;101290.84;;;11.12;92.98
52032;BME280;38044;45.148;39.604;2023-05-10T01:17:01;101235.00;;;10.83;92.46
52032;BME280;38044;45.148;39.604;2023-05-10T01:19:29;101169.03;;;10.41;92.48
52032;BME280;38044;45.148;39.604;2023-05-10T01:28:00;101290.25;;;11.25;92.44
52032;BME280;38044;45.148;39.604;2023-05-10T01:31:12;101310.13;;;11.29;92.19
52032;BME280;38044;45.148;39.604;2023-05-10T01:34:02;101317.16;;;11.25;91.87
52032;BME280;38044;45.148;39.604;2023-05-10T01:36:38;101170.13;;;10.30;91.62
52032;BME280;38044;45.148;39.604;2023-05-10T01:39:08;101307.44;;;11.29;91.74
52032;BME280;38044;45.148;39.604;2023-05-10T01:44:35;101163.16;;;10.24;91.48
52032;BME280;38044;45.148;39.604;2023-05-10T01:47:12;101326.34;;;11.14;91.98
52032;BME280;38044;45.148;39.604;2023-05-10T01:49:52;101332.84;;;11.08;92.15
52032;BME280;38044;45.148;39.604;2023-05-10T01:52:22;101296.53;;;10.95;92.15
52032;BME280;38044;45.148;39.604;2023-05-10T01:54:59;101274.78;;;10.86;91.97
52032;BME280;38044;45.148;39.604;2023-05-10T01:57:33;101282.56;;;10.93;91.81
52032;BME280;38044;45.148;39.604;2023-05-10T02:00:03;101312.09;;;11.08;92.36
52032;BME280;38044;45.148;39.604;2023-05-10T02:02:37;101300.81;;;11.06;92.22
52032;BME280;38044;45.148;39.604;2023-05-10T02:05:08;101148.44;;;10.06;92.36
52032;BME280;38044;45.148;39.604;2023-05-10T02:07:36;101315.84;;;11.12;92.30
52032;BME280;38044;45.148;39.604;2023-05-10T02:10:04;101289.28;;;10.95;91.87
52032;BME280;38044;45.148;39.604;2023-05-10T02:12:41;101260.53;;;10.86;92.02
52032;BME280;38044;45.148;39.604;2023-05-10T02:15:08;101314.00;;;11.02;91.76
52032;BME280;38044;45.148;39.604;2023-05-10T02:17:37;101299.53;;;10.93;91.58
52032;BME280;38044;45.148;39.604;2023-05-10T02:20:06;101276.16;;;10.78;91.39
52032;BME280;38044;45.148;39.604;2023-05-10T02:22:32;101308.09;;;11.00;91.63
52032;BME280;38044;45.148;39.604;2023-05-10T02:25:00;101303.00;;;10.99;91.50
52032;BME280;38044;45.148;39.604;2023-05-10T02:27:27;101317.47;;;11.13;91.37
52032;BME280;38044;45.148;39.604;2023-05-10T02:29:55;101165.06;;;10.13;91.30
52032;BME280;38044;45.148;39.604;2023-05-10T02:32:24;101291.41;;;10.98;90.93
52032;BME280;38044;45.148;39.604;2023-05-10T02:34:50;101313.97;;;11.13;91.08
52032;BME280;38044;45.148;39.604;2023-05-10T02:37:19;101298.94;;;11.01;90.88
52032;BME280;38044;45.148;39.604;2023-05-10T02:39:49;101336.03;;;11.15;90.72
52032;BME280;38044;45.148;39.604;2023-05-10T02:42:19;101300.56;;;10.97;90.57
52032;BME280;38044;45.148;39.604;2023-05-10T02:44:51;101254.72;;;10.58;90.22
52032;BME280;38044;45.148;39.604;2023-05-10T02:47:18;101325.88;;;10.96;90.20
52032;BME280;38044;45.148;39.604;2023-05-10T02:49:45;101298.22;;;10.75;90.56
52032;BME280;38044;45.148;39.604;2023-05-10T02:52:16;101300.09;;;10.90;91.35
52032;BME280;38044;45.148;39.604;2023-05-10T02:54:45;101317.28;;;10.94;91.05
52032;BME280;38044;45.148;39.604;2023-05-10T02:57:24;101340.03;;;11.27;91.07
52032;BME280;38044;45.148;39.604;2023-05-10T02:59:51;101208.84;;;10.39;90.88
52032;BME280;38044;45.148;39.604;2023-05-10T03:02:17;101351.84;;;11.26;90.85
52032;BME280;38044;45.148;39.604;2023-05-10T03:04:43;101295.44;;;11.01;90.53
52032;BME280;38044;45.148;39.604;2023-05-10T03:07:09;101341.38;;;11.25;90.34
52032;BME280;38044;45.148;39.604;2023-05-10T03:09:35;101341.88;;;11.27;89.52
52032;BME280;38044;45.148;39.604;2023-05-10T03:15:03;101318.00;;;11.10;89.37
52032;BME280;38044;45.148;39.604;2023-05-10T03:17:39;101205.88;;;10.35;89.61
52032;BME280;38044;45.148;39.604;2023-05-10T03:20:10;101338.69;;;11.20;90.16
52032;BME280;38044;45.148;39.604;2023-05-10T03:22:39;101319.34;;;11.13;90.11
52032;BME280;38044;45.148;39.604;2023-05-10T03:25:08;101198.09;;;10.34;89.38
52032;BME280;38044;45.148;39.604;2023-05-10T03:27:36;101310.25;;;10.98;89.36
52032;BME280;38044;45.148;39.604;2023-05-10T03:30:05;101364.25;;;11.27;89.37
52032;BME280;38044;45.148;39.604;2023-05-10T03:32:33;101342.47;;;11.19;88.88
52032;BME280;38044;45.148;39.604;2023-05-10T03:35:00;101208.28;;;10.32;88.65
52032;BME280;38044;45.148;39.604;2023-05-10T03:37:26;101349.47;;;11.20;88.70
52032;BME280;38044;45.148;39.604;2023-05-10T03:39:52;101368.22;;;11.35;88.60
52032;BME280;38044;45.148;39.604;2023-05-10T03:42:18;101362.03;;;11.35;88.64
52032;BME280;38044;45.148;39.604;2023-05-10T03:44:44;101370.34;;;11.38;87.93
52032;BME280;38044;45.148;39.604;2023-05-10T03:47:09;101307.06;;;10.91;88.08
52032;BME280;38044;45.148;39.604;2023-05-10T03:49:35;101386.00;;;11.36;87.29
52032;BME280;38044;45.148;39.604;2023-05-10T03:52:01;101365.53;;;11.30;87.79
52032;BME280;38044;45.148;39.604;2023-05-10T03:54:27;101372.53;;;11.36;87.72
52032;BME280;38044;45.148;39.604;2023-05-10T03:56:52;101378.94;;;11.50;87.94
52032;BME280;38044;45.148;39.604;2023-05-10T03:59:18;101222.75;;;10.62;87.76
52032;BME280;38044;45.148;39.604;2023-05-10T04:01:44;101342.41;;;11.34;87.78
52032;BME280;38044;45.148;39.604;2023-05-10T04:04:10;101247.41;;;10.74;87.28
52032;BME280;38044;45.148;39.604;2023-05-10T04:06:36;101259.22;;;10.83;87.11
52032;BME280;38044;45.148;39.604;2023-05-10T04:09:03;101374.03;;;11.63;87.18
52032;BME280;38044;45.148;39.604;2023-05-10T04:11:29;101364.63;;;11.55;87.07
52032;BME280;38044;45.148;39.604;2023-05-10T04:13:55;101372.66;;;11.70;86.77
52032;BME280;38044;45.148;39.604;2023-05-10T04:16:21;101391.75;;;11.74;86.21
52032;BME280;38044;45.148;39.604;2023-05-10T04:18:49;101385.25;;;11.75;85.94
52032;BME280;38044;45.148;39.604;2023-05-10T04:21:14;101380.44;;;11.72;85.40
52032;BME280;38044;45.148;39.604;2023-05-10T04:23:40;101387.72;;;11.66;85.38
52032;BME280;38044;45.148;39.604;2023-05-10T04:26:06;101368.16;;;11.50;85.63
52032;BME280;38044;45.148;39.604;2023-05-10T04:28:32;101387.97;;;11.70;85.75
52032;BME280;38044;45.148;39.604;2023-05-10T04:31:09;101248.38;;;10.98;85.44
52032;BME280;38044;45.148;39.604;2023-05-10T04:33:35;101376.13;;;11.76;85.54
52032;BME280;38044;45.148;39.604;2023-05-10T04:36:02;101371.81;;;11.70;85.69
52032;BME280;38044;45.148;39.604;2023-05-10T04:38:28;101397.00;;;12.00;85.74
52032;BME280;38044;45.148;39.604;2023-05-10T04:40:54;101407.78;;;12.00;84.97
52032;BME280;38044;45.148;39.604;2023-05-10T04:43:20;101346.56;;;11.61;84.46
52032;BME280;38044;45.148;39.604;2023-05-10T04:45:46;101383.09;;;11.77;84.82
52032;BME280;38044;45.148;39.604;2023-05-10T04:48:11;101411.53;;;11.99;84.91
52032;BME280;38044;45.148;39.604;2023-05-10T04:50:38;101399.75;;;11.84;84.73
52032;BME280;38044;45.148;39.604;2023-05-10T04:53:04;101392.75;;;11.83;85.12
52032;BME280;38044;45.148;39.604;2023-05-10T04:55:30;101260.75;;;10.99;85.03
52032;BME280;38044;45.148;39.604;2023-05-10T04:57:56;101387.13;;;11.80;85.39
52032;BME280;38044;45.148;39.604;2023-05-10T05:00:23;101405.91;;;11.95;85.05
52032;BME280;38044;45.148;39.604;2023-05-10T05:02:48;101404.88;;;11.91;84.80
52032;BME280;38044;45.148;39.604;2023-05-10T05:05:14;101294.34;;;11.07;84.31
52032;BME280;38044;45.148;39.604;2023-05-10T05:07:40;101394.13;;;11.81;85.19
52032;BME280;38044;45.148;39.604;2023-05-10T05:10:07;101348.22;;;11.57;85.25
52032;BME280;38044;45.148;39.604;2023-05-10T05:12:34;101406.97;;;11.99;85.05
52032;BME280;38044;45.148;39.604;2023-05-10T05:15:00;101402.88;;;12.07;85.11
52032;BME280;38044;45.148;39.604;2023-05-10T05:17:26;101407.22;;;12.03;84.45
52032;BME280;38044;45.148;39.604;2023-05-10T05:19:52;101379.75;;;11.95;83.95
52032;BME280;38044;45.148;39.604;2023-05-10T05:22:18;101299.75;;;11.52;84.07
52032;BME280;38044;45.148;39.604;2023-05-10T05:24:53;101411.34;;;12.29;83.65
52032;BME280;38044;45.148;39.604;2023-05-10T05:27:19;101305.09;;;11.62;83.20
52032;BME280;38044;45.148;39.604;2023-05-10T05:29:56;101377.41;;;12.23;83.00
52032;BME280;38044;45.148;39.604;2023-05-10T05:32:23;101376.72;;;12.07;82.84
52032;BME280;38044;45.148;39.604;2023-05-10T05:34:49;101416.50;;;12.26;83.18
52032;BME280;38044;45.148;39.604;2023-05-10T05:37:17;101414.06;;;12.24;83.10
52032;BME280;38044;45.148;39.604;2023-05-10T05:39:44;101385.91;;;12.06;83.10
52032;BME280;38044;45.148;39.604;2023-05-10T05:42:10;101417.69;;;12.44;83.11
52032;BME280;38044;45.148;39.604;2023-05-10T05:44:36;101384.34;;;12.34;81.97
52032;BME280;38044;45.148;39.604;2023-05-10T05:47:02;101301.94;;;11.94;81.51
52032;BME280;38044;45.148;39.604;2023-05-10T05:49:28;101363.53;;;12.40;81.56
52032;BME280;38044;45.148;39.604;2023-05-10T05:51:54;101306.44;;;11.99;81.12
52032;BME280;38044;45.148;39.604;2023-05-10T05:54:20;101256.06;;;11.65;81.00
52032;BME280;38044;45.148;39.604;2023-05-10T05:56:46;101317.53;;;11.97;80.68
52032;BME280;38044;45.148;39.604;2023-05-10T05:59:11;101289.91;;;11.76;80.82
52032;BME280;38044;45.148;39.604;2023-05-10T06:01:37;101275.69;;;11.70;81.34
52032;BME280;38044;45.148;39.604;2023-05-10T06:04:03;101328.13;;;12.17;80.83
52032;BME280;38044;45.148;39.604;2023-05-10T06:06:29;101310.94;;;12.13;79.86
52032;BME280;38044;45.148;39.604;2023-05-10T06:08:54;101399.88;;;12.77;79.26
52032;BME280;38044;45.148;39.604;2023-05-10T06:11:20;101396.53;;;12.56;79.09
52032;BME280;38044;45.148;39.604;2023-05-10T06:13:47;101276.94;;;11.78;78.73
52032;BME280;38044;45.148;39.604;2023-05-10T06:16:13;101391.78;;;12.48;78.89
52032;BME280;38044;45.148;39.604;2023-05-10T06:18:39;101382.03;;;12.52;79.48
52032;BME280;38044;45.148;39.604;2023-05-10T06:21:05;101423.34;;;12.76;78.95
52032;BME280;38044;45.148;39.604;2023-05-10T06:23:30;101311.00;;;12.03;78.99
52032;BME280;38044;45.148;39.604;2023-05-10T06:25:56;101289.69;;;12.07;79.50
52032;BME280;38044;45.148;39.604;2023-05-10T06:28:22;101426.06;;;13.24;78.68
52032;BME280;38044;45.148;39.604;2023-05-10T06:30:48;101404.50;;;13.48;77.97
52032;BME280;38044;45.148;39.604;2023-05-10T06:33:13;101391.75;;;13.54;77.53
52032;BME280;38044;45.148;39.604;2023-05-10T06:35:39;101297.31;;;12.82;77.18
52032;BME280;38044;45.148;39.604;2023-05-10T06:38:05;101309.63;;;12.64;77.25
52032;BME280;38044;45.148;39.604;2023-05-10T06:40:31;101364.06;;;12.71;76.69
52032;BME280;38044;45.148;39.604;2023-05-10T06:42:56;101397.22;;;12.72;76.94
52032;BME280;38044;45.148;39.604;2023-05-10T06:45:22;101444.06;;;12.81;77.41
52032;BME280;38044;45.148;39.604;2023-05-10T06:47:48;101412.03;;;12.45;77.52
52032;BME280;38044;45.148;39.604;2023-05-10T06:50:14;101307.94;;;12.15;77.58
52032;BME280;38044;45.148;39.604;2023-05-10T06:52:40;101353.09;;;12.87;76.60
52032;BME280;38044;45.148;39.604;2023-05-10T06:55:06;101445.50;;;13.74;76.15
52032;BME280;38044;45.148;39.604;2023-05-10T06:57:32;101288.63;;;12.85;75.10
52032;BME280;38044;45.148;39.604;2023-05-10T06:59:59;101448.66;;;14.01;74.74
52032;BME280;38044;45.148;39.604;2023-05-10T07:02:25;101324.31;;;13.25;74.16
52032;BME280;38044;45.148;39.604;2023-05-10T07:04:50;101360.09;;;13.36;74.38
52032;BME280;38044;45.148;39.604;2023-05-10T07:07:17;101293.19;;;12.84;73.66
52032;BME280;38044;45.148;39.604;2023-05-10T07:09:43;101409.53;;;13.55;73.77
52032;BME280;38044;45.148;39.604;2023-05-10T07:12:09;101423.81;;;13.98;73.55
52032;BME280;38044;45.148;39.604;2023-05-10T07:14:35;101436.59;;;13.93;73.07
52032;BME280;38044;45.148;39.604;2023-05-10T07:17:01;101449.94;;;13.84;73.80
52032;BME280;38044;45.148;39.604;2023-05-10T07:19:26;101447.69;;;13.72;74.15
52032;BME280;38044;45.148;39.604;2023-05-10T07:21:52;101459.31;;;13.92;74.30
52032;BME280;38044;45.148;39.604;2023-05-10T07:24:18;101425.72;;;14.17;72.90
52032;BME280;38044;45.148;39.604;2023-05-10T07:26:44;101435.09;;;14.57;71.13
52032;BME280;38044;45.148;39.604;2023-05-10T07:29:10;101448.84;;;14.42;70.95
52032;BME280;38044;45.148;39.604;2023-05-10T07:31:36;101336.84;;;13.40;70.79
52032;BME280;38044;45.148;39.604;2023-05-10T07:34:02;101339.88;;;13.09;70.77
52032;BME280;38044;45.148;39.604;2023-05-10T07:36:27;101421.50;;;13.25;70.83
52032;BME280;38044;45.148;39.604;2023-05-10T07:38:54;101400.50;;;12.93;72.24
52032;BME280;38044;45.148;39.604;2023-05-10T07:41:20;101370.94;;;12.82;72.25
52032;BME280;38044;45.148;39.604;2023-05-10T07:43:46;101333.63;;;12.90;72.28
52032;BME280;38044;45.148;39.604;2023-05-10T07:46:12;101479.13;;;14.25;70.90
52032;BME280;38044;45.148;39.604;2023-05-10T07:48:37;101472.63;;;14.45;70.06
52032;BME280;38044;45.148;39.604;2023-05-10T07:51:03;101470.06;;;14.35;69.59
52032;BME280;38044;45.148;39.604;2023-05-10T07:53:29;101466.78;;;14.00;70.76
52032;BME280;38044;45.148;39.604;2023-05-10T07:55:57;101372.63;;;13.02;70.34
52032;BME280;38044;45.148;39.604;2023-05-10T07:58:24;101415.38;;;12.90;71.54
52032;BME280;38044;45.148;39.604;2023-05-10T08:00:50;101488.09;;;13.35;72.01
52032;BME280;38044;45.148;39.604;2023-05-10T08:03:16;101441.66;;;13.08;71.27
52032;BME280;38044;45.148;39.604;2023-05-10T08:05:42;101450.50;;;13.14;71.34
52032;BME280;38044;45.148;39.604;2023-05-10T08:08:08;101382.41;;;12.69;71.72
52032;BME280;38044;45.148;39.604;2023-05-10T08:10:33;101467.22;;;13.16;71.62
52032;BME280;38044;45.148;39.604;2023-05-10T08:12:59;101490.56;;;13.02;72.32
52032;BME280;38044;45.148;39.604;2023-05-10T08:15:25;101353.38;;;11.92;72.92
52032;BME280;38044;45.148;39.604;2023-05-10T08:17:51;101466.47;;;12.47;73.59
52032;BME280;38044;45.148;39.604;2023-05-10T08:20:17;101369.31;;;11.89;73.22
52032;BME280;38044;45.148;39.604;2023-05-10T08:22:47;101500.94;;;12.90;73.87
52032;BME280;38044;45.148;39.604;2023-05-10T08:25:13;101515.34;;;13.09;73.53
52032;BME280;38044;45.148;39.604;2023-05-10T08:27:38;101458.31;;;12.87;72.90
52032;BME280;38044;45.148;39.604;2023-05-10T08:30:05;101500.72;;;13.10;72.88
52032;BME280;38044;45.148;39.604;2023-05-10T08:32:31;101459.53;;;12.70;73.76
52032;BME280;38044;45.148;39.604;2023-05-10T08:34:57;101374.38;;;11.95;73.82
52032;BME280;38044;45.148;39.604;2023-05-10T08:37:23;101343.81;;;11.71;73.50
52032;BME280;38044;45.148;39.604;2023-05-10T08:39:49;101333.19;;;12.24;74.18
52032;BME280;38044;45.148;39.604;2023-05-10T08:42:19;101456.19;;;14.04;71.82
52032;BME280;38044;45.148;39.604;2023-05-10T08:44:48;101492.56;;;15.15;69.39
52032;BME280;38044;45.148;39.604;2023-05-10T08:47:16;101368.50;;;15.17;67.04
52032;BME280;38044;45.148;39.604;2023-05-10T08:49:46;101392.41;;;15.65;64.76
52032;BME280;38044;45.148;39.604;2023-05-10T08:52:15;101449.31;;;16.29;64.95
52032;BME280;38044;45.148;39.604;2023-05-10T08:54:42;101470.69;;;16.98;63.93
52032;BME280;38044;45.148;39.604;2023-05-10T08:57:08;101435.69;;;16.96;61.69
52032;BME280;38044;45.148;39.604;2023-05-10T08:59:34;101467.34;;;17.41;61.28
52032;BME280;38044;45.148;39.604;2023-05-10T09:02:00;101386.81;;;17.05;60.48
52032;BME280;38044;45.148;39.604;2023-05-10T09:04:30;101472.84;;;17.58;59.83
52032;BME280;38044;45.148;39.604;2023-05-10T09:06:57;101471.38;;;17.52;60.23
52032;BME280;38044;45.148;39.604;2023-05-10T09:09:23;101453.66;;;17.54;59.33
52032;BME280;38044;45.148;39.604;2023-05-10T09:11:49;101479.84;;;17.59;58.33
52032;BME280;38044;45.148;39.604;2023-05-10T09:14:15;101463.81;;;17.31;59.06
52032;BME280;38044;45.148;39.604;2023-05-10T09:16:41;101424.81;;;16.96;59.97
52032;BME280;38044;45.148;39.604;2023-05-10T09:19:07;101333.22;;;16.17;59.49
52032;BME280;38044;45.148;39.604;2023-05-10T09:21:35;101376.50;;;15.99;59.98
52032;BME280;38044;45.148;39.604;2023-05-10T09:24:08;101487.91;;;16.26;60.99
52032;BME280;38044;45.148;39.604;2023-05-10T09:26:35;101333.50;;;14.79;62.03
52032;BME280;38044;45.148;39.604;2023-05-10T09:29:02;101371.91;;;15.08;62.51
52032;BME280;38044;45.148;39.604;2023-05-10T09:31:51;101479.81;;;16.34;62.35
52032;BME280;38044;45.148;39.604;2023-05-10T09:34:30;101442.06;;;16.69;61.88
52032;BME280;38044;45.148;39.604;2023-05-10T09:36:57;101460.09;;;17.27;59.48
52032;BME280;38044;45.148;39.604;2023-05-10T09:41:58;101344.34;;;17.09;58.16
52032;BME280;38044;45.148;39.604;2023-05-10T09:44:26;101405.72;;;17.19;57.76
52032;BME280;38044;45.148;39.604;2023-05-10T09:46:51;101451.88;;;17.10;58.59
52032;BME280;38044;45.148;39.604;2023-05-10T09:49:19;101436.75;;;16.64;59.44
52032;BME280;38044;45.148;39.604;2023-05-10T09:51:45;101375.00;;;16.16;58.89
52032;BME280;38044;45.148;39.604;2023-05-10T09:54:15;101362.38;;;16.11;59.61
52032;BME280;38044;45.148;39.604;2023-05-10T09:56:42;101451.63;;;16.89;59.20
52032;BME280;38044;45.148;39.604;2023-05-10T09:59:11;101475.53;;;17.49;57.56
52032;BME280;38044;45.148;39.604;2023-05-10T10:01:38;101401.41;;;17.18;57.69
52032;BME280;38044;45.148;39.604;2023-05-10T10:04:08;101396.84;;;17.53;56.61
52032;BME280;38044;45.148;39.604;2023-05-10T10:06:39;101474.88;;;18.27;56.42
52032;BME280;38044;45.148;39.604;2023-05-10T10:09:14;101470.38;;;18.57;55.13
52032;BME280;38044;45.148;39.604;2023-05-10T10:11:40;101473.22;;;18.69;53.83
52032;BME280;38044;45.148;39.604;2023-05-10T10:14:06;101492.75;;;18.89;53.94
52032;BME280;38044;45.148;39.604;2023-05-10T10:16:32;101477.06;;;18.68;54.23
52032;BME280;38044;45.148;39.604;2023-05-10T10:18:58;101441.53;;;18.56;54.58
52032;BME280;38044;45.148;39.604;2023-05-10T10:21:24;101429.16;;;18.67;54.89
52032;BME280;38044;45.148;39.604;2023-05-10T10:23:51;101483.97;;;19.22;53.97
52032;BME280;38044;45.148;39.604;2023-05-10T10:26:18;101484.47;;;19.24;53.20
52032;BME280;38044;45.148;39.604;2023-05-10T10:28:48;101491.88;;;19.15;53.57
52032;BME280;38044;45.148;39.604;2023-05-10T10:31:50;101375.72;;;18.54;51.52
52032;BME280;38044;45.148;39.604;2023-05-10T10:34:26;101444.13;;;18.44;51.46
52032;BME280;38044;45.148;39.604;2023-05-10T10:36:57;101480.63;;;18.43;53.82
52032;BME280;38044;45.148;39.604;2023-05-10T10:39:24;101429.53;;;18.31;52.94
52032;BME280;38044;45.148;39.604;2023-05-10T10:41:55;101476.06;;;18.90;54.31
52032;BME280;38044;45.148;39.604;2023-05-10T10:44:25;101491.41;;;19.12;53.49
52032;BME280;38044;45.148;39.604;2023-05-10T10:47:05;101476.13;;;19.29;53.29
52032;BME280;38044;45.148;39.604;2023-05-10T10:52:15;101417.97;;;18.60;52.09
52032;BME280;38044;45.148;39.604;2023-05-10T10:54:44;101493.56;;;18.72;53.33
52032;BME280;38044;45.148;39.604;2023-05-10T10:57:13;101491.50;;;18.60;53.96
52032;BME280;38044;45.148;39.604;2023-05-10T10:59:43;101458.84;;;18.08;54.26
52032;BME280;38044;45.148;39.604;2023-05-10T11:02:09;101394.91;;;17.36;53.96
52032;BME280;38044;45.148;39.604;2023-05-10T11:04:42;101482.22;;;18.27;54.66
52032;BME280;38044;45.148;39.604;2023-05-10T11:07:18;101365.69;;;17.76;54.72
52032;BME280;38044;45.148;39.604;2023-05-10T11:09:47;101472.00;;;18.23;53.28
52032;BME280;38044;45.148;39.604;2023-05-10T11:12:13;101501.72;;;18.11;53.14
52032;BME280;38044;45.148;39.604;2023-05-10T11:14:39;101480.16;;;17.97;53.56
52032;BME280;38044;45.148;39.604;2023-05-10T11:17:24;101497.75;;;18.43;55.14
52032;BME280;38044;45.148;39.604;2023-05-10T11:20:09;101490.88;;;18.46;53.24
52032;BME280;38044;45.148;39.604;2023-05-10T11:22:52;101484.31;;;18.47;54.79
52032;BME280;38044;45.148;39.604;2023-05-10T11:25:18;101481.09;;;18.01;53.58
52032;BME280;38044;45.148;39.604;2023-05-10T11:27:47;101448.41;;;17.75;52.86
52032;BME280;38044;45.148;39.604;2023-05-10T11:30:14;101396.34;;;17.33;52.86
52032;BME280;38044;45.148;39.604;2023-05-10T11:32:40;101488.13;;;18.02;54.10
52032;BME280;38044;45.148;39.604;2023-05-10T11:35:07;101491.19;;;18.01;53.28
52032;BME280;38044;45.148;39.604;2023-05-10T11:37:33;101485.84;;;17.78;53.25
52032;BME280;38044;45.148;39.604;2023-05-10T11:39:59;101503.69;;;17.62;53.28
52032;BME280;38044;45.148;39.604;2023-05-10T11:42:25;101345.00;;;16.43;54.28
52032;BME280;38044;45.148;39.604;2023-05-10T11:44:52;101475.19;;;17.11;54.65
52032;BME280;38044;45.148;39.604;2023-05-10T11:47:18;101456.69;;;17.13;54.40
52032;BME280;38044;45.148;39.604;2023-05-10T11:49:45;101498.69;;;17.47;55.25
52032;BME280;38044;45.148;39.604;2023-05-10T11:52:11;101467.91;;;17.20;55.29
52032;BME280;38044;45.148;39.604;2023-05-10T11:54:37;101497.38;;;17.36;54.83
52032;BME280;38044;45.148;39.604;2023-05-10T11:57:03;101458.91;;;17.11;55.08
52032;BME280;38044;45.148;39.604;2023-05-10T11:59:29;101446.50;;;16.87;54.57
52032;BME280;38044;45.148;39.604;2023-05-10T12:01:55;101492.91;;;17.00;55.46
52032;BME280;38044;45.148;39.604;2023-05-10T12:04:21;101351.41;;;15.94;54.28
52032;BME280;38044;45.148;39.604;2023-05-10T12:06:47;101493.03;;;16.72;54.92
52032;BME280;38044;45.148;39.604;2023-05-10T12:09:14;101462.13;;;16.37;56.42
52032;BME280;38044;45.148;39.604;2023-05-10T12:11:40;101496.94;;;16.21;56.64
52032;BME280;38044;45.148;39.604;2023-05-10T12:14:07;101442.00;;;15.65;56.89
52032;BME280;38044;45.148;39.604;2023-05-10T12:16:33;101488.09;;;15.79;57.76
52032;BME280;38044;45.148;39.604;2023-05-10T12:19:00;101464.09;;;15.59;58.11
52032;BME280;38044;45.148;39.604;2023-05-10T12:21:28;101441.94;;;15.29;58.57
52032;BME280;38044;45.148;39.604;2023-05-10T12:23:59;101445.63;;;15.19;58.84
52032;BME280;38044;45.148;39.604;2023-05-10T12:26:25;101483.34;;;15.16;59.27
52032;BME280;38044;45.148;39.604;2023-05-10T12:28:54;101481.75;;;15.15;60.11
52032;BME280;38044;45.148;39.604;2023-05-10T12:31:20;101344.38;;;14.13;59.92
52032;BME280;38044;45.148;39.604;2023-05-10T12:33:46;101383.50;;;14.35;60.00
52032;BME280;38044;45.148;39.604;2023-05-10T12:36:14;101371.19;;;14.10;60.33
52032;BME280;38044;45.148;39.604;2023-05-10T12:38:46;101489.56;;;15.02;61.17
52032;BME280;38044;45.148;39.604;2023-05-10T12:41:16;101494.16;;;15.16;61.07
52032;BME280;38044;45.148;39.604;2023-05-10T12:43:43;101490.38;;;15.30;60.84
52032;BME280;38044;45.148;39.604;2023-05-10T12:46:12;101408.91;;;14.99;61.09
52032;BME280;38044;45.148;39.604;2023-05-10T12:48:39;101497.63;;;15.63;61.23
52032;BME280;38044;45.148;39.604;2023-05-10T12:51:06;101347.16;;;14.74;60.63
52032;BME280;38044;45.148;39.604;2023-05-10T12:53:35;101395.97;;;14.96;60.34
52032;BME280;38044;45.148;39.604;2023-05-10T12:56:01;101457.47;;;15.37;59.52
52032;BME280;38044;45.148;39.604;2023-05-10T12:58:27;101502.16;;;15.81;60.07
52032;BME280;38044;45.148;39.604;2023-05-10T13:00:53;101454.47;;;15.52;59.89